createdAt,value
2023-04-01T05:53:18.991Z,20.43
2023-04-01T06:10:30.386Z,14.63
2023-04-01T06:19:21.632Z,22.53
2023-04-01T06:22:30.975Z,17.43
2023-04-01T06:25:41.842Z,16.67
2023-04-01T06:32:08.225Z,16.73
2023-04-01T06:34:53.329Z,14.43
2023-04-01T06:38:07.988Z,19.83
2023-04-01T06:40:54.393Z,31.20
2023-04-01T06:44:13.397Z,15.63
2023-04-01T06:49:44.244Z,8.83
2023-04-01T06:55:34.148Z,19.73
2023-04-01T07:27:03.517Z,12.80
2023-04-01T07:41:50.139Z,17.53
2023-04-01T07:44:33.620Z,21.83
2023-04-01T07:47:40.799Z,13.70
2023-04-01T07:50:19.879Z,7.77
2023-04-01T08:02:38.964Z,14.67
2023-04-01T08:08:10.153Z,7.77
2023-04-01T08:10:48.569Z,14.67
2023-04-01T08:13:26.777Z,19.00
2023-04-01T08:16:31.431Z,18.87
2023-04-01T08:22:48.550Z,18.93
2023-04-01T08:25:46.473Z,18.80
2023-04-01T08:30:57.544Z,19.83
2023-04-01T08:42:50.428Z,17.73
2023-04-01T08:45:37.591Z,24.53
2023-04-01T08:48:47.479Z,23.40
2023-04-01T08:51:55.038Z,19.00
2023-04-01T08:54:45.569Z,20.90
2023-04-01T08:57:24.069Z,17.67
2023-04-01T09:00:14.500Z,24.27
2023-04-01T09:02:59.489Z,10.43
2023-04-01T09:05:41.277Z,14.43
2023-04-01T09:08:30.060Z,21.00
2023-04-01T09:11:30.187Z,17.80
2023-04-01T09:14:28.037Z,20.47
2023-04-01T09:17:36.587Z,12.83
2023-04-01T09:20:39.735Z,9.00
2023-04-01T09:23:35.135Z,8.27
2023-04-01T09:26:50.960Z,8.23
2023-04-01T09:29:32.638Z,15.83
2023-04-01T09:32:32.369Z,11.00
2023-04-01T09:35:10.182Z,14.47
2023-04-01T09:37:54.040Z,14.20
2023-04-01T09:46:20.983Z,12.20
2023-04-01T09:49:36.230Z,5.27
2023-04-01T09:52:26.472Z,12.30
2023-04-01T09:55:05.298Z,16.90
2023-04-01T09:58:13.210Z,20.27
2023-04-01T10:00:57.801Z,17.37
2023-04-01T10:03:58.079Z,9.80
2023-04-01T10:07:09.509Z,11.60
2023-04-01T10:10:22.365Z,12.80
2023-04-01T10:13:23.200Z,7.53
2023-04-01T10:16:31.486Z,13.57
2023-04-01T10:19:20.597Z,8.90
2023-04-01T10:22:38.281Z,14.00
2023-04-01T10:26:03.001Z,10.97
2023-04-01T10:29:06.595Z,11.03
2023-04-01T10:32:28.554Z,11.93
2023-04-01T10:35:44.837Z,13.23
2023-04-01T10:38:46.552Z,14.40
2023-04-01T10:41:49.639Z,13.90
2023-04-01T10:44:44.330Z,13.93
2023-04-01T10:47:49.371Z,8.10
2023-04-01T10:50:53.947Z,12.10
2023-04-01T10:53:48.749Z,13.57
2023-04-01T10:56:41.051Z,12.57
2023-04-01T10:59:47.045Z,11.53
2023-04-01T11:02:56.430Z,22.47
2023-04-01T11:06:12.824Z,13.73
2023-04-01T11:09:24.758Z,18.23
2023-04-01T11:12:33.576Z,11.13
2023-04-01T11:15:31.740Z,10.57
2023-04-01T11:21:16.616Z,10.17
2023-04-01T11:24:05.753Z,25.10
2023-04-01T11:26:54.228Z,6.10
2023-04-01T11:33:15.881Z,4.40
2023-04-01T11:36:17.006Z,6.70
2023-04-01T11:39:03.159Z,7.33
2023-04-01T11:41:41.313Z,9.63
2023-04-01T11:47:26.662Z,10.90
2023-04-01T12:05:58.449Z,8.67
2023-04-01T12:09:34.066Z,13.03
2023-04-01T12:35:57.334Z,12.37
2023-04-01T12:38:40.725Z,9.87
2023-04-01T12:41:21.776Z,13.00
2023-04-01T12:44:31.835Z,6.50
2023-04-01T12:47:43.114Z,9.33
2023-04-01T12:50:39.730Z,8.73
2023-04-01T12:53:36.371Z,5.87
2023-04-01T12:56:13.801Z,15.10
2023-04-01T12:59:21.912Z,8.63
2023-04-01T13:02:09.612Z,8.60
2023-04-01T13:04:59.122Z,12.17
2023-04-01T13:07:59.395Z,12.47
2023-04-01T13:10:40.996Z,9.57
2023-04-01T13:13:40.442Z,6.10
2023-04-01T13:16:17.413Z,7.17
2023-04-01T13:18:59.928Z,9.30
2023-04-01T13:21:50.165Z,9.47
2023-04-01T13:24:29.691Z,6.60
2023-04-01T13:27:13.047Z,7.20
2023-04-01T13:29:43.636Z,3.90
2023-04-01T13:32:33.371Z,6.70
2023-04-01T13:35:23.379Z,5.30
2023-04-01T13:38:08.047Z,5.73
2023-04-01T13:40:52.355Z,4.77
2023-04-01T13:43:34.020Z,10.43
2023-04-01T13:46:21.697Z,7.27
2023-04-01T13:49:14.646Z,5.97
2023-04-01T13:52:01.980Z,4.30
2023-04-01T13:54:52.342Z,5.07
2023-04-01T13:57:46.026Z,6.93
2023-04-01T14:00:55.158Z,10.07
2023-04-01T14:03:46.483Z,9.10
2023-04-01T14:09:46.917Z,8.40
2023-04-01T14:12:28.408Z,6.40
2023-04-01T14:15:12.673Z,10.60
2023-04-01T14:17:54.761Z,6.57
2023-04-01T14:20:31.549Z,5.07
2023-04-01T14:23:25.712Z,13.00
2023-04-01T14:29:02.559Z,8.67
2023-04-01T14:31:42.386Z,5.63
2023-04-01T14:34:27.885Z,6.77
2023-04-01T14:37:06.619Z,6.37
2023-04-01T14:40:08.345Z,8.80
2023-04-01T14:43:19.345Z,6.43
2023-04-01T14:46:25.462Z,5.23
2023-04-01T14:48:58.522Z,4.53
2023-04-01T14:51:35.234Z,6.60
2023-04-01T14:54:25.457Z,8.47
2023-04-01T14:57:07.846Z,8.57
2023-04-01T14:59:42.264Z,6.10
2023-04-01T15:02:26.406Z,5.40
2023-04-01T15:05:14.759Z,7.10
2023-04-01T15:08:07.359Z,8.17
2023-04-01T15:11:06.900Z,7.20
2023-04-01T15:14:17.553Z,2.20
2023-04-01T15:17:15.615Z,5.57
2023-04-01T15:20:02.899Z,5.70
2023-04-01T15:23:03.356Z,4.73
2023-04-01T15:25:44.724Z,4.90
2023-04-01T15:28:25.867Z,2.77
2023-04-01T15:31:01.380Z,5.67
2023-04-01T15:33:46.207Z,5.67
2023-04-01T15:36:30.411Z,6.17
2023-04-01T15:39:06.192Z,7.80
2023-04-01T15:41:43.418Z,4.77
2023-04-01T15:44:39.405Z,4.07
2023-04-01T15:47:39.721Z,6.73
2023-04-01T15:50:39.981Z,3.60
2023-04-01T15:53:37.310Z,4.63
2023-04-01T15:56:21.116Z,4.23
2023-04-01T15:59:03.576Z,7.27
2023-04-01T16:01:50.053Z,7.30
2023-04-01T16:04:48.688Z,6.03
2023-04-01T16:07:59.826Z,4.37
2023-04-01T16:10:56.896Z,4.87
2023-04-01T16:13:50.950Z,6.50
2023-04-01T16:16:32.827Z,5.03
2023-04-01T16:19:15.107Z,4.50
2023-04-01T16:21:51.380Z,5.27
2023-04-01T16:24:27.171Z,5.47
2023-04-01T16:26:59.003Z,4.20
2023-04-01T16:29:38.406Z,4.00
2023-04-01T16:32:20.245Z,6.77
2023-04-01T16:35:00.513Z,3.37
2023-04-01T16:37:42.388Z,5.20
2023-04-01T16:40:26.506Z,6.47
2023-04-01T16:42:58.403Z,4.57
2023-04-01T16:45:36.532Z,8.70
2023-04-01T16:48:13.615Z,6.00
2023-04-01T16:50:56.304Z,9.10
2023-04-01T16:53:38.911Z,10.23
2023-04-01T16:56:27.688Z,6.47
2023-04-01T16:59:05.237Z,14.13
2023-04-01T17:01:55.028Z,7.83
2023-04-01T17:04:35.747Z,9.53
2023-04-01T17:07:27.038Z,4.37
2023-04-01T17:10:39.685Z,6.90
2023-04-01T17:17:30.647Z,7.73
2023-04-01T17:20:10.814Z,3.53
2023-04-01T17:23:01.000Z,5.53
2023-04-01T17:25:51.408Z,5.57
2023-04-01T17:28:30.030Z,5.50
2023-04-01T17:31:08.984Z,4.83
2023-04-01T17:33:58.452Z,10.47
2023-04-01T17:36:42.576Z,4.73
2023-04-01T17:39:25.261Z,3.20
2023-04-01T17:42:02.521Z,5.83
2023-04-01T17:44:40.195Z,4.77
2023-04-01T17:47:30.346Z,4.60
2023-04-01T17:50:12.343Z,5.93
2023-04-01T17:52:44.464Z,4.50
2023-04-01T17:55:48.846Z,5.30
2023-04-01T17:58:22.628Z,5.07
2023-04-01T18:01:05.077Z,3.77
2023-04-01T18:03:55.898Z,4.17
2023-04-01T18:06:33.577Z,6.97
2023-04-01T18:09:07.467Z,3.73
2023-04-01T18:11:46.944Z,8.33
2023-04-01T18:14:39.262Z,5.70
2023-04-01T18:17:21.308Z,4.53
2023-04-01T18:20:14.860Z,4.63
2023-04-01T18:22:46.653Z,4.47
2023-04-01T18:25:24.287Z,5.50
2023-04-01T18:27:56.043Z,4.60
2023-04-01T18:30:31.758Z,4.07
2023-04-01T18:33:06.152Z,6.20
2023-04-01T18:35:49.574Z,6.07
2023-04-01T18:38:21.352Z,10.87
2023-04-01T18:40:53.688Z,4.20
2023-04-01T18:43:38.902Z,4.73
2023-04-01T18:46:19.209Z,8.23
2023-04-01T18:48:54.705Z,8.60
2023-04-01T18:51:28.030Z,14.80
2023-04-01T18:54:00.775Z,10.17
2023-04-01T18:56:32.912Z,6.87
2023-04-01T18:59:07.806Z,6.03
2023-04-01T19:01:43.409Z,6.33
2023-04-01T19:04:22.614Z,5.73
2023-04-01T19:06:53.008Z,6.23
2023-04-01T19:09:25.654Z,6.60
2023-04-01T19:12:33.590Z,7.50
2023-04-01T19:15:28.066Z,8.37
2023-04-01T19:18:25.115Z,8.20
2023-04-01T19:20:59.380Z,6.37
2023-04-01T19:24:08.788Z,9.90
2023-04-01T19:26:42.073Z,11.43
2023-04-01T19:29:27.736Z,6.90
2023-04-01T19:32:07.548Z,9.70
2023-04-01T19:34:47.799Z,8.60
2023-04-01T19:37:28.663Z,6.70
2023-04-01T19:40:06.686Z,9.07
2023-04-01T19:42:46.485Z,7.17
2023-04-01T19:45:28.560Z,6.70
2023-04-01T19:48:07.038Z,5.37
2023-04-01T19:50:41.973Z,10.90
2023-04-01T19:53:21.439Z,7.63
2023-04-01T19:55:55.276Z,6.97
2023-04-01T19:58:34.753Z,6.50
2023-04-01T20:01:06.014Z,13.23
2023-04-01T20:03:45.745Z,9.20
2023-04-01T20:09:53.418Z,12.07
2023-04-01T20:12:35.169Z,11.90
2023-04-01T20:15:06.285Z,5.80
2023-04-01T20:17:42.456Z,9.30
2023-04-01T20:20:22.807Z,5.63
2023-04-01T20:23:22.954Z,7.97
2023-04-01T20:25:57.005Z,8.60
2023-04-01T20:28:32.816Z,10.23
2023-04-01T20:31:26.210Z,9.17
2023-04-01T20:34:25.485Z,8.93
2023-04-01T20:37:03.381Z,9.73
2023-04-01T20:39:55.126Z,7.63
2023-04-01T20:42:56.688Z,7.03
2023-04-01T20:45:41.199Z,7.47
2023-04-01T20:48:31.404Z,8.77
2023-04-01T20:51:06.440Z,8.53
2023-04-01T20:53:42.192Z,7.20
2023-04-01T20:56:26.806Z,9.83
2023-04-01T20:59:02.035Z,3.83
2023-04-01T21:01:43.443Z,6.50
2023-04-01T21:04:25.953Z,6.97
2023-04-01T21:07:15.857Z,4.57
2023-04-01T21:09:58.411Z,7.60
2023-04-01T21:12:38.381Z,5.77
2023-04-01T21:15:34.107Z,6.17
2023-04-01T21:18:15.601Z,9.13
2023-04-01T21:21:13.817Z,8.63
2023-04-01T21:24:09.256Z,6.47
2023-04-01T21:26:54.964Z,4.70
2023-04-01T21:29:42.607Z,8.33
2023-04-01T21:32:25.798Z,9.70
2023-04-01T21:35:00.212Z,6.60
2023-04-01T21:37:54.615Z,7.40
2023-04-01T21:40:52.553Z,7.33
2023-04-01T21:43:38.088Z,10.67
2023-04-01T21:46:34.082Z,4.87
2023-04-01T21:49:17.634Z,8.13
2023-04-01T21:52:08.522Z,7.13
2023-04-01T21:55:22.133Z,7.30
2023-04-01T21:58:49.889Z,5.80
2023-04-01T22:01:40.285Z,5.83
2023-04-01T22:04:24.795Z,10.50
2023-04-01T22:06:59.027Z,8.33
2023-04-01T22:09:34.276Z,6.20
2023-04-01T22:12:10.747Z,7.53
2023-04-01T22:14:45.940Z,10.53
2023-04-01T22:17:24.214Z,4.40
2023-04-01T22:20:04.268Z,4.97
2023-04-01T22:22:52.336Z,7.77
2023-04-01T22:25:29.593Z,10.40
2023-04-01T22:28:05.365Z,8.13
2023-04-01T22:30:36.850Z,6.53
2023-04-01T22:33:12.605Z,12.40
2023-04-01T22:35:49.132Z,8.10
2023-04-01T22:38:32.614Z,12.87
2023-04-01T22:41:07.597Z,7.93
2023-04-01T22:43:40.725Z,8.30
2023-04-01T22:46:37.116Z,10.00
2023-04-01T22:49:12.168Z,10.87
2023-04-01T22:51:45.893Z,10.73
2023-04-01T22:54:22.398Z,13.30
2023-04-01T22:56:58.157Z,10.73
2023-04-01T22:59:34.402Z,9.60
2023-04-01T23:02:09.026Z,11.13
2023-04-01T23:04:44.302Z,13.43
2023-04-01T23:07:30.740Z,12.40
2023-04-01T23:10:00.050Z,13.87
2023-04-01T23:12:28.882Z,13.40
2023-04-01T23:15:01.513Z,13.40
2023-04-01T23:17:44.916Z,6.60
2023-04-01T23:20:33.054Z,11.47
2023-04-01T23:23:43.373Z,11.77
2023-04-01T23:26:15.653Z,9.50
2023-04-01T23:28:49.795Z,5.57
2023-04-01T23:31:29.812Z,14.37
2023-04-01T23:33:59.697Z,13.53
2023-04-01T23:36:29.906Z,10.87
2023-04-01T23:39:01.265Z,9.37
2023-04-01T23:41:33.327Z,7.77
2023-04-01T23:44:04.900Z,8.43
2023-04-01T23:46:36.561Z,9.97
2023-04-01T23:49:07.537Z,6.50
2023-04-01T23:51:42.425Z,10.30
2023-04-01T23:54:18.829Z,13.00
2023-04-01T23:56:51.257Z,8.63
2023-04-01T23:59:21.266Z,8.17
